Time;durP1;ratioP1;P1;durP2;ratioP2;P2;SDS_P1;SDS_P2;PMS_P1;PMS_P2;Temp;Humidity;BMP_temperature;BMP_pressure;BME280_temperature;BME280_humidity;BME280_pressure;Samples;Min_cycle;Max_cycle;Signal;HPM_P1;HPM_P2
2022/11/05 00:19:05;;;;;;;32.00;19.80;;;;;;;9.93;100.00;99583.88;3504969;82;99008;-89
2022/11/05 00:29:06;;;;;;;30.68;20.17;;;;;;;9.94;100.00;99587.42;3505770;82;99102;-89
2022/11/05 00:34:06;;;;;;;36.67;22.23;;;;;;;9.93;100.00;99583.11;3515702;82;26389;-90
2022/11/05 00:39:07;;;;;;;35.27;22.20;;;;;;;9.93;100.00;99588.00;3504310;82;99119;-89
2022/11/05 00:49:30;;;;;;;33.30;21.00;;;;;;;9.93;100.00;99594.86;3499022;82;99085;-89
2022/11/05 00:54:31;;;;;;;30.70;20.45;;;;;;;9.94;100.00;99597.03;3510721;82;34804;-89
2022/11/05 00:59:31;;;;;;;34.73;21.27;;;;;;;9.93;100.00;99604.48;3493182;83;98858;-89
2022/11/05 01:04:32;;;;;;;32.47;20.17;;;;;;;9.91;100.00;99604.11;3495678;83;26098;-89
2022/11/05 01:09:33;;;;;;;29.37;19.97;;;;;;;9.90;100.00;99606.66;3485168;83;98681;-89
2022/11/05 01:14:34;;;;;;;32.63;20.30;;;;;;;9.91;100.00;99611.55;3498603;83;32501;-90
2022/11/05 01:19:38;;;;;;;32.13;19.97;;;;;;;9.90;100.00;99613.53;3493532;83;98727;-90
2022/11/05 01:24:39;;;;;;;34.30;20.37;;;;;;;9.90;100.00;99621.77;3492030;83;28090;-91
2022/11/05 01:29:40;;;;;;;32.93;20.77;;;;;;;9.89;100.00;99621.59;3489334;83;99343;-89
2022/11/05 01:34:41;;;;;;;35.13;21.17;;;;;;;9.88;100.00;99619.98;3496876;83;26268;-88
2022/11/05 01:39:42;;;;;;;36.57;21.20;;;;;;;9.87;100.00;99633.54;3465523;83;98909;-88
2022/11/05 01:45:15;;;;;;;31.27;20.07;;;;;;;9.88;100.00;99643.34;3501453;83;32494;-89
2022/11/05 01:50:43;;;;;;;35.83;20.08;;;;;;;9.89;100.00;99646.89;3490597;83;98944;-90
2022/11/05 01:55:57;;;;;;;29.87;18.95;;;;;;;9.89;100.00;99653.77;3500977;82;34798;-90
2022/11/05 02:00:59;;;;;;;26.90;16.45;;;;;;;9.87;100.00;99665.14;3507003;82;98887;-89
2022/11/05 02:06:02;;;;;;;27.23;16.80;;;;;;;9.86;100.00;99667.70;3518831;82;28145;-89
2022/11/05 02:11:03;;;;;;;22.93;14.80;;;;;;;9.87;100.00;99673.99;3512178;82;98729;-89
2022/11/05 02:16:15;;;;;;;22.00;13.40;;;;;;;9.87;100.00;99684.38;3516891;82;27188;-88
2022/11/05 02:21:43;;;;;;;23.05;14.10;;;;;;;9.87;100.00;99689.11;3513850;82;34799;-88
2022/11/05 02:27:13;;;;;;;25.80;14.30;;;;;;;9.87;100.00;99694.61;3452376;82;99068;-87
2022/11/05 02:32:53;;;;;;;25.05;15.32;;;;;;;9.87;100.00;99698.13;3513698;82;34996;-87
2022/11/05 02:38:14;;;;;;;23.92;13.65;;;;;;;9.84;100.00;99698.91;3511058;82;99030;-87
2022/11/05 02:43:39;;;;;;;25.48;15.88;;;;;;;9.83;100.00;99701.47;3520256;82;36044;-88
2022/11/05 02:48:49;;;;;;;26.73;15.85;;;;;;;9.83;100.00;99700.09;3511048;82;99076;-88
2022/11/05 02:53:56;;;;;;;27.87;16.97;;;;;;;9.83;100.00;99701.47;3519905;82;35397;-88
2022/11/05 02:58:56;;;;;;;26.15;16.27;;;;;;;9.82;100.00;99704.60;3485474;84;99095;-87
2022/11/05 03:04:00;;;;;;;27.03;16.47;;;;;;;9.83;100.00;99701.47;3476591;84;27174;-87
2022/11/05 03:09:36;;;;;;;30.15;17.15;;;;;;;9.84;100.00;99717.36;3467535;84;98873;-87
2022/11/05 03:14:44;;;;;;;26.05;15.75;;;;;;;9.84;100.00;99720.10;3480353;84;26638;-87
2022/11/05 03:20:14;;;;;;;26.55;15.88;;;;;;;9.84;100.00;99725.02;3473699;83;98780;-87
2022/11/05 03:25:19;;;;;;;24.15;14.20;;;;;;;9.84;100.00;99740.14;3466388;84;34790;-87
2022/11/05 03:30:20;;;;;;;27.20;15.90;;;;;;;9.85;100.00;99749.95;3474416;84;99207;-88
2022/11/05 03:35:35;;;;;;;25.80;15.10;;;;;;;9.86;100.00;99757.02;3489339;84;25835;-87
2022/11/05 03:40:38;;;;;;;25.03;14.23;;;;;;;9.87;100.00;99777.05;3447330;84;98780;-87
2022/11/05 03:45:50;;;;;;;22.15;12.80;;;;;;;9.86;100.00;99779.61;3488867;84;34897;-87
2022/11/05 03:51:05;;;;;;;22.77;13.45;;;;;;;9.85;100.00;99787.63;3471062;83;98932;-88
2022/11/05 03:56:24;;;;;;;19.45;12.95;;;;;;;9.86;100.00;99787.25;3487534;82;34073;-87
2022/11/05 04:01:25;;;;;;;19.90;10.78;;;;;;;9.86;100.00;99803.73;3515816;82;34960;-88
2022/11/05 04:17:10;;;;;;;13.20;7.37;;;;;;;9.90;100.00;99834.78;3513405;82;98819;-88
2022/11/05 04:27:30;;;;;;;10.48;5.05;;;;;;;9.92;100.00;99835.17;3510843;82;99279;-86
2022/11/05 04:32:31;;;;;;;8.50;4.10;;;;;;;9.93;100.00;99842.84;3514050;82;25902;-87
2022/11/05 04:37:32;;;;;;;8.77;4.03;;;;;;;9.92;100.00;99852.27;3510192;82;98658;-87
2022/11/05 04:42:33;;;;;;;7.77;3.97;;;;;;;9.92;100.00;99855.78;3516567;82;32623;-87
2022/11/05 04:47:34;;;;;;;7.90;3.83;;;;;;;9.94;100.00;99856.20;3508878;82;98708;-86
2022/11/05 04:52:34;;;;;;;8.30;4.17;;;;;;;9.94;100.00;99850.70;3513210;82;33572;-85
2022/11/05 04:57:35;;;;;;;8.23;3.97;;;;;;;9.94;100.00;99860.90;3498436;82;98705;-86
2022/11/05 05:02:36;;;;;;;9.30;4.30;;;;;;;9.93;100.00;99865.59;3494255;83;33493;-86
2022/11/05 05:07:37;;;;;;;8.65;4.20;;;;;;;9.93;100.00;99886.81;3489381;83;98489;-87
2022/11/05 05:12:38;;;;;;;9.57;3.70;;;;;;;9.93;100.00;99896.44;3495424;83;27423;-87
2022/11/05 05:17:39;;;;;;;7.50;3.47;;;;;;;9.92;100.00;99906.63;3491882;83;122457;-87
2022/11/05 05:22:39;;;;;;;8.10;3.90;;;;;;;9.91;100.00;99918.00;3497934;83;26298;-89
2022/11/05 05:27:40;;;;;;;7.20;3.57;;;;;;;9.93;100.00;99922.55;3494594;83;98723;-87
2022/11/05 05:32:41;;;;;;;7.07;3.17;;;;;;;9.95;100.00;99928.44;3493848;83;26306;-87
2022/11/05 05:37:43;;;;;;;6.27;3.00;;;;;;;9.95;100.00;99932.56;3492767;83;98872;-86
2022/11/05 05:42:44;;;;;;;7.80;3.20;;;;;;;9.96;100.00;99945.13;3501276;83;26532;-89
2022/11/05 05:47:44;;;;;;;7.73;2.57;;;;;;;9.93;100.00;99950.03;3495452;83;98610;-88
2022/11/05 05:52:45;;;;;;;4.97;2.40;;;;;;;9.92;100.00;99982.22;3501611;83;26138;-87
2022/11/05 05:57:46;;;;;;;7.67;2.42;;;;;;;9.90;100.00;99994.77;3475525;83;98572;-88
2022/11/05 06:02:47;;;;;;;4.67;1.97;;;;;;;9.90;100.00;100007.14;3459490;84;33251;-88
2022/11/05 06:07:56;;;;;;;3.73;1.70;;;;;;;9.87;100.00;100013.41;3454294;84;98843;-89
2022/11/05 06:13:01;;;;;;;4.87;1.80;;;;;;;9.88;100.00;100021.86;3459752;84;25958;-89
2022/11/05 06:18:01;;;;;;;5.60;1.67;;;;;;;9.86;100.00;100028.34;3453030;84;99007;-89
2022/11/05 06:23:02;;;;;;;9.40;1.83;;;;;;;9.84;100.00;100027.34;3460792;84;33743;-89
2022/11/05 06:28:03;;;;;;;4.17;1.60;;;;;;;9.83;100.00;100051.88;3453708;84;98561;-90
2022/11/05 06:33:04;;;;;;;7.73;1.90;;;;;;;9.82;100.00;100063.23;3459204;84;33803;-90
2022/11/05 06:38:05;;;;;;;4.83;1.63;;;;;;;9.81;100.00;100068.53;3456271;82;98600;-90
2022/11/05 06:43:07;;;;;;;4.87;1.70;;;;;;;9.81;100.00;100074.03;3433570;84;33785;-90
2022/11/05 06:48:08;;;;;;;6.93;1.80;;;;;;;9.80;100.00;100088.91;3456380;84;98864;-92
2022/11/05 06:53:08;;;;;;;6.20;2.00;;;;;;;9.80;100.00;100096.59;3460466;84;33770;-92
2022/11/05 06:58:10;;;;;;;5.83;1.90;;;;;;;9.80;100.00;100089.72;3479708;82;98801;-92
2022/11/05 07:03:11;;;;;;;8.53;2.27;;;;;;;9.83;100.00;100095.05;3511312;82;33251;-92
2022/11/05 07:08:13;;;;;;;7.33;3.37;;;;;;;9.82;100.00;100118.20;3507790;82;98848;-94
2022/11/05 07:13:13;;;;;;;10.13;3.00;;;;;;;9.83;100.00;100128.02;3509671;82;33337;-93
2022/11/05 07:18:14;;;;;;;6.80;2.30;;;;;;;9.81;100.00;100135.87;3509876;82;99029;-94
2022/11/05 07:23:15;;;;;;;6.00;2.42;;;;;;;9.85;100.00;100144.34;3509974;82;33217;-94
2022/11/05 07:28:17;;;;;;;7.55;2.25;;;;;;;9.89;100.00;100138.87;3505463;82;98641;-94
2022/11/05 07:33:22;;;;;;;6.90;2.40;;;;;;;9.92;100.00;100159.52;3514848;82;32281;-94
2022/11/05 07:38:23;;;;;;;8.65;2.87;;;;;;;9.92;100.00;100169.14;3505481;82;98819;-94
2022/11/05 07:43:24;;;;;;;8.88;2.72;;;;;;;9.96;100.00;100169.16;3515921;82;33338;-92
2022/11/05 07:48:28;;;;;;;9.70;2.87;;;;;;;9.99;100.00;100162.35;3507956;81;98767;-96
2022/11/05 07:53:29;;;;;;;9.08;3.40;;;;;;;10.03;100.00;100167.88;3508864;82;33711;-96
2022/11/05 07:58:30;;;;;;;9.97;4.50;;;;;;;10.07;100.00;100164.02;3515132;82;98942;-96
2022/11/05 08:03:31;;;;;;;8.53;3.70;;;;;;;10.10;100.00;100182.52;3522668;82;32140;-95
2022/11/05 08:08:37;;;;;;;12.47;5.47;;;;;;;10.17;100.00;100185.31;3517089;82;98634;-96
2022/11/05 08:13:38;;;;;;;;;;;;;;;10.25;100.00;100172.42;3501487;82;26225;-91
2022/11/05 08:18:39;;;;;;;14.40;6.37;;;;;;;10.29;100.00;100175.97;3518188;82;85213;-92
2022/11/05 08:23:41;;;;;;;16.43;8.87;;;;;;;10.35;100.00;100197.25;3516949;82;31917;-91
2022/11/05 08:28:42;;;;;;;16.13;7.33;;;;;;;10.41;100.00;100205.95;3515266;82;99539;-92
2022/11/05 08:33:43;;;;;;;15.73;7.53;;;;;;;10.46;100.00;100228.98;3493373;82;31669;-95
2022/11/05 08:38:44;;;;;;;14.80;7.37;;;;;;;10.49;100.00;100240.02;3516139;82;99404;-92
2022/11/05 08:43:45;;;;;;;14.73;6.63;;;;;;;10.55;100.00;100241.24;3524561;82;31597;-90
2022/11/05 08:48:46;;;;;;;14.73;7.60;;;;;;;10.60;100.00;100256.60;3517293;82;99273;-92
2022/11/05 08:53:47;;;;;;;14.30;6.17;;;;;;;10.61;100.00;100260.36;3520935;82;32138;-94
2022/11/05 08:58:48;;;;;;;13.43;6.28;;;;;;;10.64;100.00;100276.70;3516653;82;99144;-92
2022/11/05 09:03:50;;;;;;;15.23;6.70;;;;;;;10.63;100.00;100293.78;3521757;82;32148;-94
2022/11/05 09:08:51;;;;;;;16.27;7.27;;;;;;;10.61;100.00;100287.87;3486387;82;99090;-90
2022/11/05 09:13:52;;;;;;;14.90;7.40;;;;;;;10.64;100.00;100306.36;3520274;82;32375;-93
2022/11/05 09:18:53;;;;;;;15.87;7.00;;;;;;;10.71;100.00;100313.91;3515048;82;99142;-92
2022/11/05 09:23:53;;;;;;;17.23;7.10;;;;;;;10.74;100.00;100322.19;3520408;82;32962;-94
2022/11/05 09:28:54;;;;;;;16.48;7.40;;;;;;;10.79;100.00;100342.48;3513151;82;98931;-92
2022/11/05 09:33:55;;;;;;;14.53;7.70;;;;;;;10.81;100.00;100347.62;3521873;82;25884;-92
2022/11/05 09:38:56;;;;;;;15.63;6.83;;;;;;;10.81;100.00;100351.75;3455433;84;98923;-93
2022/11/05 09:44:14;;;;;;;19.33;9.97;;;;;;;10.82;100.00;100345.06;3456237;84;26255;-91
2022/11/05 09:49:37;;;;;;;19.07;8.75;;;;;;;10.83;100.00;100356.28;3448196;84;99176;-95
2022/11/05 09:54:39;;;;;;;21.35;9.85;;;;;;;10.83;100.00;100356.28;3452957;84;29804;-94
2022/11/05 09:59:54;;;;;;;22.90;8.90;;;;;;;10.84;100.00;100370.27;3452976;82;98892;-94
2022/11/05 10:05:03;;;;;;;22.45;8.65;;;;;;;10.87;100.00;100370.30;3458409;84;31196;-94
2022/11/05 10:10:08;;;;;;;16.65;7.97;;;;;;;10.89;100.00;100372.08;3452255;84;98987;-92
2022/11/05 10:15:29;;;;;;;22.58;10.82;;;;;;;10.92;100.00;100380.97;3457707;84;31068;-92
2022/11/05 10:20:36;;;;;;;17.77;8.48;;;;;;;10.95;100.00;100382.94;3448115;84;99619;-93
2022/11/05 10:25:42;;;;;;;19.77;8.08;;;;;;;10.95;100.00;100380.80;3461200;84;31802;-91
2022/11/05 10:30:46;;;;;;;19.45;7.78;;;;;;;11.02;100.00;100385.75;3449184;84;99365;-92
2022/11/05 10:35:52;;;;;;;18.82;9.78;;;;;;;11.05;100.00;100402.90;3443532;84;31418;-90
2022/11/05 10:41:30;;;;;;;17.48;7.22;;;;;;;11.10;100.00;100406.69;3447330;84;99198;-91
2022/11/05 10:46:41;;;;;;;17.40;7.67;;;;;;;11.05;100.00;100397.97;3451221;84;99442;-90
2022/11/05 10:51:42;;;;;;;15.68;6.90;;;;;;;11.17;100.00;100408.72;3418247;84;30867;-91
2022/11/05 10:56:43;;;;;;;17.15;7.25;;;;;;;11.22;100.00;100429.80;3447682;84;99059;-91
2022/11/05 11:01:45;;;;;;;20.23;7.03;;;;;;;11.26;100.00;100429.25;3378279;85;25952;-91
2022/11/05 11:06:53;;;;;;;16.83;7.50;;;;;;;11.31;100.00;100442.68;3422861;85;99377;-90
2022/11/05 11:12:26;;;;;;;18.48;6.95;;;;;;;11.33;100.00;100447.81;3423463;85;29854;-91
2022/11/05 11:17:31;;;;;;;15.38;5.92;;;;;;;11.28;100.00;100437.14;3387606;85;99235;-90
2022/11/05 11:22:32;;;;;;;13.05;5.92;;;;;;;11.37;100.00;100452.17;3395672;85;30848;-89
2022/11/05 11:27:34;;;;;;;10.70;5.23;;;;;;;11.41;100.00;100452.20;3380945;85;99333;-87
2022/11/05 11:32:39;;;;;;;10.48;5.20;;;;;;;11.48;100.00;100445.35;3494052;83;32432;-89
2022/11/05 11:37:40;;;;;;;16.62;5.30;;;;;;;11.48;100.00;100445.35;3484773;83;99154;-89
2022/11/05 11:42:49;;;;;;;12.70;5.17;;;;;;;11.52;100.00;100456.63;3486082;83;30323;-90
2022/11/05 11:47:50;;;;;;;19.82;5.30;;;;;;;11.54;100.00;100457.03;3484782;83;99229;-89
2022/11/05 11:52:51;;;;;;;14.83;5.03;;;;;;;11.55;100.00;100463.34;3485420;83;26363;-88
2022/11/05 11:58:05;;;;;;;12.60;4.30;;;;;;;11.54;100.00;100464.49;3480998;83;98810;-87
2022/11/05 12:03:36;;;;;;;16.80;4.08;;;;;;;11.55;100.00;100471.01;3403663;85;31753;-86
2022/11/05 12:09:03;;;;;;;11.93;4.75;;;;;;;11.55;100.00;100473.77;3394997;83;99093;-88
2022/11/05 12:14:18;;;;;;;19.25;4.47;;;;;;;11.57;100.00;100479.70;3375204;85;28836;-88
2022/11/05 12:19:39;;;;;;;9.58;3.27;;;;;;;11.57;100.00;100472.81;3465905;84;98999;-87
2022/11/05 12:25:06;;;;;;;13.25;2.52;;;;;;;11.60;100.00;100476.77;3443265;84;31181;-86
2022/11/05 12:30:15;;;;;;;;;;;;;;;11.59;100.00;100475.20;3468054;83;98933;-88
2022/11/05 12:36:03;;;;;;;16.32;3.77;;;;;;;11.60;100.00;100482.28;3478364;84;32255;-88
2022/11/05 12:41:16;;;;;;;;;;;;;;;11.60;100.00;100483.66;3404694;84;99049;-88
2022/11/05 12:46:25;;;;;;;13.00;3.60;;;;;;;11.64;100.00;100498.28;3398304;84;85615;-88
2022/11/05 12:52:07;;;;;;;12.40;3.17;;;;;;;11.72;100.00;100503.46;3410239;85;31612;-88
2022/11/05 12:57:11;;;;;;;12.13;2.80;;;;;;;11.72;100.00;100503.46;3400643;85;99122;-87
2022/11/05 13:02:41;;;;;;;14.43;2.83;;;;;;;11.76;100.00;100515.31;3466080;82;30296;-87
2022/11/05 13:07:59;;;;;;;11.12;3.22;;;;;;;11.78;100.00;100512.18;3501983;82;99027;-87
2022/11/05 13:13:12;;;;;;;18.07;4.17;;;;;;;11.80;100.00;100518.09;3501383;82;30852;-88
2022/11/05 13:18:18;;;;;;;14.45;3.85;;;;;;;11.77;100.00;100521.63;3495249;83;99373;-90
2022/11/05 13:23:31;;;;;;;;;;;;;;;11.76;100.00;100524.97;3509979;82;26371;-87
2022/11/05 13:28:46;;;;;;;11.68;2.58;;;;;;;11.71;100.00;100532.20;3500173;82;85336;-87
2022/11/05 13:33:50;;;;;;;13.68;2.83;;;;;;;11.68;100.00;100536.32;3512856;82;31673;-89
2022/11/05 13:38:59;;;;;;;8.30;2.90;;;;;;;11.69;100.00;100542.03;3494881;82;99131;-88
2022/11/05 13:44:27;;;;;;;12.60;2.90;;;;;;;11.67;100.00;100545.16;3500796;82;32083;-89
2022/11/05 13:50:18;;;;;;;17.67;3.60;;;;;;;11.68;100.00;100545.39;3497505;82;99365;-88
2022/11/05 13:56:17;;;;;;;8.05;2.83;;;;;;;11.67;100.00;100547.92;3511546;82;30012;-88
2022/11/05 14:01:36;;;;;;;11.63;2.90;;;;;;;11.66;100.00;100551.08;3503870;82;30182;-86
2022/11/05 14:06:36;;;;;;;15.20;3.00;;;;;;;11.62;100.00;100545.52;3492813;83;99084;-88
2022/11/05 14:11:42;;;;;;;16.57;2.80;;;;;;;11.60;100.00;100548.44;3504549;83;26394;-87
2022/11/05 14:17:08;;;;;;;10.90;3.30;;;;;;;11.58;100.00;100555.70;3492406;83;99320;-87
2022/11/05 14:22:40;;;;;;;10.15;2.60;;;;;;;11.58;100.00;100572.25;3501557;83;26431;-88
2022/11/05 14:27:47;;;;;;;9.50;2.25;;;;;;;11.51;100.00;100585.16;3334649;86;99177;-87
2022/11/05 14:32:49;;;;;;;8.23;2.87;;;;;;;11.45;100.00;100588.84;3462338;83;31621;-89
2022/11/05 14:37:57;;;;;;;12.13;4.20;;;;;;;11.39;99.32;100593.11;3486832;83;98847;-88
2022/11/05 14:43:16;;;;;;;18.92;5.20;;;;;;;11.35;99.23;100590.89;3487648;83;32314;-88
2022/11/05 14:48:53;;;;;;;15.33;6.17;;;;;;;11.31;99.13;100596.97;3488537;83;99329;-88
2022/11/05 14:54:24;;;;;;;20.00;5.83;;;;;;;11.27;99.28;100593.95;3496496;83;26334;-89
2022/11/05 14:59:30;;;;;;;13.33;3.93;;;;;;;11.15;98.68;100603.28;3485917;83;99117;-88
2022/11/05 15:04:35;;;;;;;13.53;4.03;;;;;;;11.07;98.21;100606.34;3492180;83;31786;-90
2022/11/05 15:09:47;;;;;;;13.03;3.58;;;;;;;10.97;98.66;100618.02;3470851;83;99048;-89
2022/11/05 15:15:26;;;;;;;16.75;3.52;;;;;;;10.87;98.13;100624.98;3501195;83;31744;-87
2022/11/05 15:20:41;;;;;;;13.48;3.45;;;;;;;10.77;98.18;100635.27;3491928;83;99013;-88
2022/11/05 15:26:12;;;;;;;17.10;5.10;;;;;;;10.67;98.33;100633.73;3496530;83;31729;-88
2022/11/05 15:31:18;;;;;;;18.90;5.37;;;;;;;10.59;98.42;100630.68;3506286;83;30330;-87
2022/11/05 15:36:29;;;;;;;18.30;6.28;;;;;;;10.46;98.54;100633.45;3496371;82;99196;-87
2022/11/05 15:41:33;;;;;;;20.82;7.08;;;;;;;10.38;99.34;100635.30;3500264;83;31768;-87
2022/11/05 15:46:33;;;;;;;16.37;8.38;;;;;;;10.29;99.44;100628.45;3495532;83;99133;-89
2022/11/05 15:51:35;;;;;;;19.60;8.63;;;;;;;10.17;99.72;100643.78;3505066;83;25864;-86
2022/11/05 15:56:40;;;;;;;18.75;7.95;;;;;;;10.03;100.00;100652.56;3493783;83;99198;-88
2022/11/05 16:01:55;;;;;;;14.35;6.97;;;;;;;9.90;100.00;100657.24;3506354;82;29809;-87
2022/11/05 16:07:09;;;;;;;28.32;10.03;;;;;;;9.79;100.00;100675.50;3473739;83;98986;-89
2022/11/05 16:12:28;;;;;;;23.18;9.48;;;;;;;9.66;100.00;100681.75;3503877;82;31176;-90
2022/11/05 16:17:40;;;;;;;19.45;7.47;;;;;;;9.55;100.00;100674.48;3501869;82;98792;-89
2022/11/05 16:22:46;;;;;;;18.98;7.70;;;;;;;9.45;100.00;100688.80;3514727;82;31680;-90
2022/11/05 16:27:47;;;;;;;20.00;8.85;;;;;;;9.32;100.00;100678.54;3506561;82;98953;-88
2022/11/05 16:32:48;;;;;;;18.60;9.43;;;;;;;9.22;100.00;100682.46;3512262;82;26598;-90
2022/11/05 16:37:51;;;;;;;20.57;8.08;;;;;;;9.15;100.00;100700.14;3509672;82;98924;-90
2022/11/05 16:42:53;;;;;;;18.55;8.23;;;;;;;9.05;100.00;100707.59;3478238;83;32239;-90
2022/11/05 16:47:54;;;;;;;19.20;8.43;;;;;;;8.91;100.00;100710.83;3507654;82;98817;-89
2022/11/05 16:52:59;;;;;;;24.07;10.43;;;;;;;8.81;100.00;100720.99;3511273;82;25881;-91
2022/11/05 16:58:01;;;;;;;18.63;8.03;;;;;;;8.75;100.00;100733.97;3505377;82;99250;-90
2022/11/05 17:03:02;;;;;;;18.83;7.03;;;;;;;8.65;100.00;100723.53;3507649;82;25886;-91
2022/11/05 17:08:04;;;;;;;15.48;7.45;;;;;;;8.56;100.00;100730.58;3491977;83;98641;-89
2022/11/05 17:13:05;;;;;;;20.60;7.87;;;;;;;8.47;100.00;100729.19;3493751;83;26434;-90
2022/11/05 17:18:05;;;;;;;18.13;8.93;;;;;;;8.40;100.00;100740.77;3483887;84;98837;-88
2022/11/05 17:23:13;;;;;;;22.47;10.37;;;;;;;8.33;100.00;100748.02;3496965;83;34934;-88
2022/11/05 17:28:15;;;;;;;25.15;11.12;;;;;;;8.22;100.00;100757.92;3470039;83;99146;-88
2022/11/05 17:33:16;;;;;;;19.05;9.83;;;;;;;8.14;100.00;100760.25;3498206;83;32323;-89
2022/11/05 17:38:18;;;;;;;20.00;10.40;;;;;;;8.02;100.00;100756.99;3489118;83;98872;-90
2022/11/05 17:43:19;;;;;;;24.90;10.25;;;;;;;7.95;100.00;100762.30;3502691;83;32603;-88
2022/11/05 17:48:20;;;;;;;23.32;10.98;;;;;;;7.67;100.00;100753.31;3493864;83;98958;-89
2022/11/05 17:53:21;;;;;;;24.30;11.90;;;;;;;7.67;100.00;100753.31;3501741;83;26321;-87
2022/11/05 17:58:22;;;;;;;23.23;11.00;;;;;;;7.73;100.00;100788.89;3492835;83;98819;-88
2022/11/05 18:03:23;;;;;;;26.10;12.83;;;;;;;7.64;100.00;100795.09;3500355;83;34899;-89
2022/11/05 18:08:25;;;;;;;30.33;16.33;;;;;;;7.58;100.00;100802.55;3495842;83;99001;-89
2022/11/05 18:13:26;;;;;;;40.53;21.10;;;;;;;7.48;100.00;100803.81;3499079;83;35115;-89
2022/11/05 18:18:26;;;;;;;50.13;19.37;;;;;;;7.43;100.00;100807.38;3493870;83;99227;-88
2022/11/05 18:23:27;;;;;;;44.00;21.13;;;;;;;7.32;100.00;100812.52;3497431;83;34920;-89
2022/11/05 18:28:30;;;;;;;46.37;22.50;;;;;;;7.24;100.00;100816.77;3501807;83;99101;-88
2022/11/05 18:33:30;;;;;;;45.37;20.70;;;;;;;7.15;100.00;100818.85;3499362;83;35269;-89
2022/11/05 18:38:31;;;;;;;40.67;19.60;;;;;;;7.07;100.00;100821.94;3490323;83;98914;-89
2022/11/05 18:43:33;;;;;;;32.17;16.17;;;;;;;7.00;100.00;100834.59;3501279;83;34925;-90
2022/11/05 18:48:34;;;;;;;28.47;16.40;;;;;;;6.93;100.00;100827.54;3470969;83;98873;-91
2022/11/05 18:53:36;;;;;;;33.90;16.73;;;;;;;6.86;100.00;100825.37;3504008;83;34905;-89
2022/11/05 18:58:37;;;;;;;36.83;18.10;;;;;;;6.80;100.00;100824.00;3501442;83;99055;-90
2022/11/05 19:03:38;;;;;;;29.67;15.90;;;;;;;6.73;100.00;100823.78;3506396;83;35518;-91
2022/11/05 19:08:39;;;;;;;34.30;16.17;;;;;;;6.64;100.00;100820.34;3500855;83;98720;-90
2022/11/05 19:13:40;;;;;;;50.07;25.27;;;;;;;6.58;100.00;100825.00;3505679;83;35330;-89
2022/11/05 19:18:42;;;;;;;54.47;26.80;;;;;;;6.50;100.00;100830.80;3496639;83;98766;-89
2022/11/05 19:23:42;;;;;;;44.83;23.53;;;;;;;6.45;100.00;100837.08;3496499;83;35187;-88
2022/11/05 19:28:44;;;;;;;41.85;22.52;;;;;;;6.39;100.00;100832.97;3493940;83;98725;-89
2022/11/05 19:33:47;;;;;;;41.13;21.12;;;;;;;6.33;100.00;100835.70;3503196;83;33708;-90
2022/11/05 19:38:56;;;;;;;35.25;20.72;;;;;;;6.26;100.00;100841.70;3485164;83;98720;-89
2022/11/05 19:43:58;;;;;;;35.00;18.85;;;;;;;6.22;100.00;100839.41;3499428;83;34934;-89
2022/11/05 19:49:00;;;;;;;48.60;26.80;;;;;;;6.16;100.00;100846.81;3497251;83;99101;-88
2022/11/05 19:54:02;;;;;;;44.50;23.52;;;;;;;6.09;100.00;100857.47;3503974;83;34852;-88
2022/11/05 19:59:07;;;;;;;49.42;28.15;;;;;;;6.02;100.00;100853.94;3499201;83;99051;-88
2022/11/05 20:04:10;;;;;;;59.25;32.45;;;;;;;5.96;100.00;100862.67;3479843;84;33550;-88
2022/11/05 20:09:13;;;;;;;52.75;30.37;;;;;;;5.92;100.00;100874.03;3475950;84;99081;-87
2022/11/05 20:14:14;;;;;;;54.60;30.82;;;;;;;5.87;100.00;100878.33;3472794;84;34625;-88
2022/11/05 20:19:18;;;;;;;52.20;28.40;;;;;;;5.81;100.00;100889.23;3459292;84;99271;-89
2022/11/05 20:24:21;;;;;;;50.95;26.33;;;;;;;5.70;100.00;100886.08;3469249;84;34852;-88
2022/11/05 20:29:24;;;;;;;40.70;23.63;;;;;;;5.70;100.00;100894.83;3464372;84;98670;-88
2022/11/05 20:34:30;;;;;;;40.55;21.60;;;;;;;5.65;100.00;100890.38;3469314;84;33080;-85
2022/11/05 20:39:31;;;;;;;43.48;22.80;;;;;;;5.62;100.00;100896.48;3465845;84;98587;-88
2022/11/05 20:44:31;;;;;;;41.63;22.90;;;;;;;5.58;100.00;100899.67;3471982;84;32159;-89
2022/11/05 20:49:32;;;;;;;40.37;23.30;;;;;;;5.51;100.00;100895.87;3466047;83;98822;-88
2022/11/05 20:54:33;;;;;;;37.90;18.77;;;;;;;5.43;100.00;100896.70;3478580;84;33761;-88
2022/11/05 20:59:34;;;;;;;35.60;18.57;;;;;;;5.36;100.00;100895.86;3456586;84;98502;-88
2022/11/05 21:04:35;;;;;;;36.43;19.77;;;;;;;5.30;100.00;100895.81;3494189;82;34033;-89
2022/11/05 21:09:36;;;;;;;43.47;22.20;;;;;;;5.27;100.00;100905.23;3497036;82;98958;-87
2022/11/05 21:14:42;;;;;;;43.70;21.97;;;;;;;5.19;100.00;100909.61;3511931;82;33812;-88
2022/11/05 21:19:43;;;;;;;43.90;25.45;;;;;;;5.17;100.00;100912.42;3505294;82;98895;-88
2022/11/05 21:24:43;;;;;;;41.43;21.83;;;;;;;5.13;100.00;100908.78;3482122;83;26196;-87
2022/11/05 21:29:44;;;;;;;47.87;25.00;;;;;;;5.09;100.00;100920.11;3502150;82;99091;-88
2022/11/05 21:34:45;;;;;;;37.23;20.10;;;;;;;5.02;100.00;100928.80;3506417;82;32509;-88
2022/11/05 21:39:46;;;;;;;45.00;23.60;;;;;;;4.99;100.00;100933.55;3502548;82;98872;-87
2022/11/05 21:44:47;;;;;;;42.65;24.60;;;;;;;4.96;100.00;100926.02;3509872;82;32497;-88
2022/11/05 21:49:47;;;;;;;40.50;24.43;;;;;;;4.91;100.00;100928.14;3498586;82;99019;-87
2022/11/05 22:00:10;;;;;;;39.03;21.83;;;;;;;4.81;100.00;100923.03;3505848;82;98898;-88
2022/11/05 22:05:13;;;;;;;42.23;21.50;;;;;;;4.77;100.00;100925.62;3508538;82;27434;-88
2022/11/05 22:10:14;;;;;;;35.03;19.87;;;;;;;4.67;100.00;100912.34;3503969;82;98677;-87
2022/11/05 22:15:15;;;;;;;38.37;21.03;;;;;;;4.67;100.00;100920.52;3482264;82;26108;-87
2022/11/05 22:20:16;;;;;;;38.47;21.80;;;;;;;4.66;100.00;100931.73;3504951;82;98714;-87
2022/11/05 22:25:17;;;;;;;35.37;20.90;;;;;;;4.60;100.00;100922.14;3513026;82;26548;-88
2022/11/05 22:30:18;;;;;;;45.30;24.53;;;;;;;4.57;100.00;100923.59;3505758;82;99212;-88
2022/11/05 22:35:19;;;;;;;47.63;25.53;;;;;;;4.56;100.00;100925.27;3509864;82;26069;-88
2022/11/05 22:40:20;;;;;;;53.10;27.57;;;;;;;4.51;100.00;100928.16;3497331;82;98632;-89
2022/11/05 22:45:21;;;;;;;46.80;26.07;;;;;;;4.51;100.00;100926.25;3508691;82;26113;-88
2022/11/05 22:50:21;;;;;;;51.17;27.60;;;;;;;4.49;100.00;100915.44;3500721;82;98589;-88
2022/11/05 22:55:22;;;;;;;48.57;26.43;;;;;;;4.48;100.00;100923.38;3505292;82;26548;-88
2022/11/05 23:00:34;;;;;;;46.23;25.07;;;;;;;4.44;100.00;100924.59;3504573;82;98725;-88
2022/11/05 23:05:35;;;;;;;42.53;24.70;;;;;;;4.41;100.00;100923.86;3489917;82;26024;-88
2022/11/05 23:26:50;;;;;;;55.57;31.23;;;;;;;4.26;100.00;100928.45;3471386;84;98780;-87
2022/11/05 23:53:09;;;;;;;58.93;31.97;;;;;;;4.05;100.00;100930.23;3478305;84;25850;-90
2022/11/05 23:58:10;;;;;;;55.30;31.82;;;;;;;4.02;100.00;100941.78;3490346;84;98971;-90
